createdAt,value
2018-09-30T00:00:41.095Z,6.81
2018-09-30T00:01:41.032Z,6.63
2018-09-30T00:02:40.966Z,6.65
2018-09-30T00:03:40.900Z,6.64
2018-09-30T00:04:40.839Z,6.49
2018-09-30T00:05:40.772Z,6.61
2018-09-30T00:06:40.709Z,6.57
2018-09-30T00:07:40.640Z,6.61
2018-09-30T00:08:40.577Z,6.60
2018-09-30T00:09:40.512Z,6.65
2018-09-30T00:10:40.447Z,6.61
2018-09-30T00:11:40.381Z,6.64
2018-09-30T00:12:40.320Z,6.64
2018-09-30T00:13:40.252Z,6.64
2018-09-30T00:14:40.186Z,6.78
2018-09-30T00:15:40.123Z,6.86
2018-09-30T00:16:40.070Z,6.79
2018-09-30T00:17:39.996Z,6.70
2018-09-30T00:18:39.926Z,6.65
2018-09-30T00:19:39.917Z,6.81
2018-09-30T00:20:39.797Z,6.74
2018-09-30T00:21:39.731Z,6.70
2018-09-30T00:22:39.667Z,6.79
2018-09-30T00:23:39.603Z,6.79
2018-09-30T00:24:39.537Z,6.75
2018-09-30T00:25:39.472Z,6.73
2018-09-30T00:26:39.407Z,6.79
2018-09-30T00:27:39.342Z,6.64
2018-09-30T00:28:39.276Z,6.60
2018-09-30T00:29:39.211Z,6.63
2018-09-30T00:30:39.147Z,6.63
2018-09-30T00:31:39.084Z,6.61
2018-09-30T00:32:39.018Z,6.67
2018-09-30T00:33:38.947Z,6.61
2018-09-30T00:34:38.886Z,6.61
2018-09-30T00:35:38.822Z,6.56
2018-09-30T00:36:38.756Z,6.57
2018-09-30T00:37:38.691Z,6.52
2018-09-30T00:38:38.626Z,6.53
2018-09-30T00:39:38.561Z,6.57
2018-09-30T00:40:38.496Z,6.49
2018-09-30T00:41:38.436Z,6.53
2018-09-30T00:42:38.366Z,6.64
2018-09-30T00:43:38.300Z,6.52
2018-09-30T00:44:38.234Z,6.43
2018-09-30T00:45:38.171Z,6.50
2018-09-30T00:46:38.105Z,6.50
2018-09-30T00:47:38.040Z,6.46
2018-09-30T00:48:37.975Z,6.38
2018-09-30T00:49:37.909Z,6.34
2018-09-30T00:50:37.845Z,6.32
2018-09-30T00:51:37.780Z,6.32
2018-09-30T00:52:37.715Z,6.28
2018-09-30T00:53:37.649Z,6.32
2018-09-30T00:54:37.585Z,6.32
2018-09-30T00:55:37.519Z,6.30
2018-09-30T00:56:37.454Z,6.24
2018-09-30T00:57:37.388Z,6.16
2018-09-30T00:58:37.326Z,6.16
2018-09-30T00:59:37.262Z,6.11
2018-09-30T01:00:37.194Z,6.13
2018-09-30T01:01:37.131Z,6.28
2018-09-30T01:02:37.064Z,6.30
2018-09-30T01:03:36.997Z,6.35
2018-09-30T01:04:36.933Z,6.28
2018-09-30T01:05:36.867Z,6.31
2018-09-30T01:06:36.804Z,6.28
2018-09-30T01:07:36.738Z,6.28
2018-09-30T01:08:36.672Z,6.32
2018-09-30T01:09:36.608Z,6.35
2018-09-30T01:10:36.542Z,6.35
2018-09-30T01:11:36.477Z,6.35
2018-09-30T01:12:36.409Z,6.32
2018-09-30T01:13:36.345Z,6.35
2018-09-30T01:14:36.283Z,6.13
2018-09-30T01:15:36.217Z,6.16
2018-09-30T01:16:36.151Z,6.18
2018-09-30T01:17:36.087Z,6.12
2018-09-30T01:18:36.019Z,6.13
2018-09-30T01:19:35.954Z,6.16
2018-09-30T01:20:35.890Z,6.11
2018-09-30T01:21:35.825Z,5.97
2018-09-30T01:22:35.758Z,6.05
2018-09-30T01:23:35.693Z,6.06
2018-09-30T01:24:35.628Z,6.06
2018-09-30T01:25:35.560Z,5.93
2018-09-30T01:26:35.506Z,5.87
2018-09-30T01:27:35.431Z,5.93
2018-09-30T01:28:35.366Z,5.94
2018-09-30T01:29:35.303Z,6.05
2018-09-30T01:30:35.236Z,6.12
2018-09-30T01:31:35.172Z,6.19
2018-09-30T01:32:35.102Z,6.06
2018-09-30T01:33:35.041Z,6.06
2018-09-30T01:34:44.117Z,6.03
2018-09-30T01:36:28.250Z,6.08
2018-09-30T01:37:28.158Z,6.03
2018-09-30T01:38:28.091Z,5.97
2018-09-30T01:39:28.029Z,6.06
2018-09-30T01:40:27.963Z,6.05
2018-09-30T01:41:27.897Z,6.03
2018-09-30T01:42:27.830Z,5.97
2018-09-30T01:43:27.769Z,6.02
2018-09-30T01:44:27.700Z,5.94
2018-09-30T01:45:27.635Z,6.05
2018-09-30T01:46:27.571Z,6.05
2018-09-30T01:47:27.505Z,6.09
2018-09-30T01:48:27.441Z,6.06
2018-09-30T01:49:27.376Z,6.09
2018-09-30T01:50:27.304Z,6.05
2018-09-30T01:51:27.240Z,6.06
2018-09-30T01:52:27.179Z,5.94
2018-09-30T01:53:27.112Z,5.97
2018-09-30T01:54:27.046Z,5.82
2018-09-30T01:55:26.982Z,5.77
2018-09-30T01:56:26.918Z,5.67
2018-09-30T01:57:26.850Z,5.66
2018-09-30T01:58:26.785Z,5.67
2018-09-30T01:59:26.720Z,5.75
2018-09-30T02:00:26.654Z,5.85
2018-09-30T02:01:26.590Z,5.91
2018-09-30T02:02:26.523Z,6.03
2018-09-30T02:03:26.459Z,6.02
2018-09-30T02:04:26.395Z,6.12
2018-09-30T02:05:26.328Z,6.13
2018-09-30T02:06:26.262Z,6.19
2018-09-30T02:07:26.196Z,6.06
2018-09-30T02:08:26.133Z,6.06
2018-09-30T02:09:26.067Z,5.95
2018-09-30T02:10:26.010Z,5.97
2018-09-30T02:11:25.935Z,6.00
2018-09-30T02:12:25.872Z,5.88
2018-09-30T02:13:25.804Z,5.79
2018-09-30T02:14:25.739Z,5.82
2018-09-30T02:15:25.675Z,5.69
2018-09-30T02:16:25.610Z,5.77
2018-09-30T02:17:25.544Z,5.67
2018-09-30T02:18:25.478Z,5.73
2018-09-30T02:19:25.424Z,5.79
2018-09-30T02:20:25.357Z,5.80
2018-09-30T02:21:25.295Z,5.91
2018-09-30T02:22:25.218Z,5.91
2018-09-30T02:23:25.157Z,5.94
2018-09-30T02:24:25.086Z,6.03
2018-09-30T02:25:25.083Z,6.06
2018-09-30T02:26:24.959Z,6.03
2018-09-30T02:27:24.889Z,6.00
2018-09-30T02:28:24.822Z,6.12
2018-09-30T02:29:24.759Z,6.06
2018-09-30T02:30:24.694Z,5.94
2018-09-30T02:31:24.649Z,5.98
2018-09-30T02:32:24.644Z,6.02
2018-09-30T02:33:24.501Z,5.97
2018-09-30T02:34:24.492Z,5.95
2018-09-30T02:35:24.364Z,5.91
2018-09-30T02:36:24.316Z,5.90
2018-09-30T02:37:24.232Z,5.91
2018-09-30T02:38:24.171Z,5.98
2018-09-30T02:39:24.104Z,6.02
2018-09-30T02:40:24.038Z,5.82
2018-09-30T02:41:23.973Z,5.80
2018-09-30T02:42:23.906Z,5.73
2018-09-30T02:43:23.842Z,5.66
2018-09-30T02:44:23.777Z,5.72
2018-09-30T02:45:23.707Z,5.65
2018-09-30T02:46:23.645Z,5.61
2018-09-30T02:47:23.585Z,5.70
2018-09-30T02:48:23.513Z,5.77
2018-09-30T02:49:23.446Z,5.69
2018-09-30T02:50:23.383Z,5.69
2018-09-30T02:51:23.317Z,5.65
2018-09-30T02:52:23.258Z,5.52
2018-09-30T02:53:23.187Z,5.55
2018-09-30T02:54:23.121Z,5.50
2018-09-30T02:55:23.054Z,5.44
2018-09-30T02:56:22.992Z,5.47
2018-09-30T02:57:22.924Z,5.52
2018-09-30T02:58:22.860Z,5.52
2018-09-30T02:59:22.795Z,5.47
2018-09-30T03:00:22.728Z,5.54
2018-09-30T03:01:22.661Z,5.54
2018-09-30T03:02:22.595Z,5.57
2018-09-30T03:03:22.530Z,5.50
2018-09-30T03:04:22.468Z,5.48
2018-09-30T03:05:22.401Z,5.52
2018-09-30T03:06:22.338Z,5.51
2018-09-30T03:07:22.274Z,5.54
2018-09-30T03:08:22.200Z,5.52
2018-09-30T03:09:22.136Z,5.40
2018-09-30T03:10:22.069Z,5.40
2018-09-30T03:11:22.007Z,5.36
2018-09-30T03:12:21.941Z,5.40
2018-09-30T03:13:21.875Z,5.37
2018-09-30T03:14:21.810Z,5.29
2018-09-30T03:15:21.747Z,5.34
2018-09-30T03:16:21.677Z,5.22
2018-09-30T03:17:21.612Z,5.39
2018-09-30T03:18:21.560Z,5.33
2018-09-30T03:19:21.483Z,5.34
2018-09-30T03:20:21.414Z,5.29
2018-09-30T03:21:21.354Z,5.34
2018-09-30T03:22:21.284Z,5.39
2018-09-30T03:23:21.220Z,5.34
2018-09-30T03:24:21.153Z,5.37
2018-09-30T03:25:21.089Z,5.40
2018-09-30T03:26:21.026Z,5.34
2018-09-30T03:27:20.976Z,5.25
2018-09-30T03:28:20.893Z,5.25
2018-09-30T03:29:20.829Z,5.25
2018-09-30T03:30:20.759Z,5.25
2018-09-30T03:31:20.693Z,5.29
2018-09-30T03:32:20.628Z,5.32
2018-09-30T03:33:20.561Z,5.29
2018-09-30T03:34:20.498Z,5.27
2018-09-30T03:35:20.461Z,5.30
2018-09-30T03:36:20.367Z,5.30
2018-09-30T03:37:20.300Z,5.36
2018-09-30T03:38:20.242Z,5.36
2018-09-30T03:39:20.208Z,5.32
2018-09-30T03:40:20.104Z,5.39
2018-09-30T03:41:20.038Z,5.32
2018-09-30T03:42:19.972Z,5.33
2018-09-30T03:43:19.907Z,5.40
2018-09-30T03:44:19.847Z,5.41
2018-09-30T03:45:19.774Z,5.41
2018-09-30T03:46:19.706Z,5.43
2018-09-30T03:47:19.641Z,5.48
2018-09-30T03:48:19.577Z,5.51
2018-09-30T03:49:19.513Z,5.40
2018-09-30T03:50:19.445Z,5.57
2018-09-30T03:51:19.382Z,5.51
2018-09-30T03:52:19.315Z,5.57
2018-09-30T03:53:19.248Z,5.50
2018-09-30T03:54:19.184Z,5.57
2018-09-30T03:55:19.119Z,5.55
2018-09-30T03:56:19.052Z,5.66
2018-09-30T03:57:18.984Z,5.67
2018-09-30T03:58:18.919Z,5.47
2018-09-30T03:59:18.855Z,5.47
2018-09-30T04:00:18.800Z,5.43
2018-09-30T04:01:18.723Z,5.34
2018-09-30T04:02:18.655Z,5.36
2018-09-30T04:03:18.591Z,5.25
2018-09-30T04:04:18.525Z,5.29
2018-09-30T04:05:18.459Z,5.22
2018-09-30T04:06:18.392Z,5.18
2018-09-30T04:07:18.334Z,5.16
2018-09-30T04:08:18.265Z,5.24
2018-09-30T04:09:18.198Z,5.16
2018-09-30T04:10:18.131Z,5.21
2018-09-30T04:11:18.066Z,5.15
2018-09-30T04:12:18.000Z,5.16
2018-09-30T04:13:17.933Z,5.16
2018-09-30T04:14:17.869Z,5.18
2018-09-30T04:15:17.801Z,5.14
2018-09-30T04:16:17.738Z,5.07
2018-09-30T04:17:17.694Z,5.12
2018-09-30T04:18:17.606Z,5.06
2018-09-30T04:19:17.540Z,5.07
2018-09-30T04:20:17.475Z,5.03
2018-09-30T04:21:17.406Z,5.11
2018-09-30T04:22:17.344Z,5.09
2018-09-30T04:23:17.279Z,5.06
2018-09-30T04:24:17.212Z,5.18
2018-09-30T04:25:17.145Z,5.24
2018-09-30T04:26:17.084Z,5.24
2018-09-30T04:27:17.016Z,5.27
2018-09-30T04:28:16.948Z,5.29
2018-09-30T04:29:16.888Z,5.27
2018-09-30T04:30:16.817Z,5.29
2018-09-30T04:31:16.754Z,5.29
2018-09-30T04:32:16.686Z,5.30
2018-09-30T04:33:16.637Z,5.30
2018-09-30T04:34:16.558Z,5.33
2018-09-30T04:35:16.488Z,5.33
2018-09-30T04:36:16.425Z,5.25
2018-09-30T04:37:16.357Z,5.18
2018-09-30T04:38:16.292Z,5.29
2018-09-30T04:39:16.226Z,5.15
2018-09-30T04:40:16.161Z,5.19
2018-09-30T04:41:16.094Z,5.19
2018-09-30T04:42:16.028Z,5.33
2018-09-30T04:43:15.964Z,5.33
2018-09-30T04:44:15.899Z,5.19
2018-09-30T04:45:15.831Z,5.16
2018-09-30T04:46:15.764Z,5.07
2018-09-30T04:47:15.699Z,5.09
2018-09-30T04:48:15.633Z,5.07
2018-09-30T04:49:15.567Z,5.04
2018-09-30T04:50:15.500Z,5.06
2018-09-30T04:51:15.441Z,5.15
2018-09-30T04:52:15.372Z,5.07
2018-09-30T04:53:15.302Z,5.16
2018-09-30T04:54:15.236Z,5.18
2018-09-30T04:55:15.173Z,5.18
2018-09-30T04:56:15.108Z,5.16
2018-09-30T04:57:15.041Z,5.24
2018-09-30T04:58:14.973Z,5.33
2018-09-30T04:59:14.910Z,5.34
2018-09-30T05:00:14.842Z,5.30
2018-09-30T05:01:14.778Z,5.18
2018-09-30T05:02:14.714Z,5.19
2018-09-30T05:03:14.646Z,5.14
2018-09-30T05:04:14.580Z,5.11
2018-09-30T05:05:14.513Z,5.11
2018-09-30T05:06:14.450Z,5.19
2018-09-30T05:07:14.383Z,5.15
2018-09-30T05:08:14.319Z,5.19
2018-09-30T05:09:14.250Z,5.21
2018-09-30T05:10:14.186Z,5.18
2018-09-30T05:11:14.119Z,5.12
2018-09-30T05:12:14.056Z,5.11
2018-09-30T05:13:13.988Z,5.15
2018-09-30T05:14:13.925Z,5.16
2018-09-30T05:15:13.858Z,5.06
2018-09-30T05:16:13.820Z,5.04
2018-09-30T05:17:13.724Z,5.11
2018-09-30T05:18:13.656Z,5.07
2018-09-30T05:19:13.594Z,5.06
2018-09-30T05:20:13.529Z,5.07
2018-09-30T05:21:13.463Z,5.07
2018-09-30T05:22:13.396Z,5.12
2018-09-30T05:23:13.331Z,5.19
2018-09-30T05:24:13.267Z,5.09
2018-09-30T05:25:13.204Z,5.16
2018-09-30T05:26:13.135Z,5.18
2018-09-30T05:27:13.069Z,5.22
2018-09-30T05:28:13.003Z,5.30
2018-09-30T05:29:12.937Z,5.30
2018-09-30T05:30:12.871Z,5.21
2018-09-30T05:31:12.867Z,5.21
2018-09-30T05:32:12.739Z,5.25
2018-09-30T05:33:12.676Z,5.25
2018-09-30T05:34:12.607Z,5.24
2018-09-30T05:35:12.542Z,5.24
2018-09-30T05:36:12.475Z,5.25
2018-09-30T05:37:12.441Z,5.30
2018-09-30T05:38:12.354Z,5.32
2018-09-30T05:39:12.279Z,5.36
2018-09-30T05:40:12.213Z,5.32
2018-09-30T05:41:12.147Z,5.36
2018-09-30T05:42:12.082Z,5.32
2018-09-30T05:43:12.016Z,5.39
2018-09-30T05:44:11.958Z,5.37
2018-09-30T05:45:11.885Z,5.37
2018-09-30T05:46:11.823Z,5.36
2018-09-30T05:47:11.753Z,5.43
2018-09-30T05:48:11.687Z,5.36
2018-09-30T05:49:11.692Z,5.40
2018-09-30T05:50:11.555Z,5.36
2018-09-30T05:51:11.488Z,5.44
2018-09-30T05:52:11.422Z,5.39
2018-09-30T05:53:11.359Z,5.40
2018-09-30T05:54:11.294Z,5.54
2018-09-30T05:55:11.232Z,5.52
2018-09-30T05:56:11.162Z,5.59
2018-09-30T05:57:11.095Z,5.54
2018-09-30T05:58:11.034Z,5.59
2018-09-30T05:59:10.965Z,5.59
2018-09-30T06:00:10.902Z,5.69
2018-09-30T06:01:10.833Z,5.69
2018-09-30T06:02:10.766Z,5.67
2018-09-30T06:03:10.702Z,5.62
2018-09-30T06:04:10.633Z,5.73
2018-09-30T06:05:10.570Z,5.80
2018-09-30T06:06:10.505Z,5.82
2018-09-30T06:07:10.440Z,5.95
2018-09-30T06:08:10.373Z,5.94
2018-09-30T06:09:10.376Z,5.94
2018-09-30T06:10:10.241Z,6.03
2018-09-30T06:11:10.176Z,6.09
2018-09-30T06:12:10.119Z,6.06
2018-09-30T06:13:10.049Z,6.19
2018-09-30T06:14:10.123Z,6.13
2018-09-30T06:15:09.915Z,6.19
2018-09-30T06:16:09.851Z,6.31
2018-09-30T06:17:10.295Z,6.27
2018-09-30T06:18:09.717Z,6.35
2018-09-30T06:19:09.647Z,6.30
2018-09-30T06:20:09.590Z,6.34
2018-09-30T06:21:09.523Z,6.35
2018-09-30T06:22:09.456Z,6.43
2018-09-30T06:23:09.390Z,6.42
2018-09-30T06:24:09.331Z,6.52
2018-09-30T06:25:09.259Z,6.53
2018-09-30T06:26:09.195Z,6.63
2018-09-30T06:27:09.127Z,6.61
2018-09-30T06:28:09.067Z,6.71
2018-09-30T06:29:08.996Z,6.78
2018-09-30T06:30:08.933Z,6.82
2018-09-30T06:31:08.868Z,6.79
2018-09-30T06:32:08.859Z,6.89
2018-09-30T06:33:08.740Z,6.97
2018-09-30T06:34:08.672Z,7.01
2018-09-30T06:35:08.604Z,7.11
2018-09-30T06:36:08.536Z,7.13
2018-09-30T06:37:08.521Z,7.06
2018-09-30T06:38:08.411Z,7.19
2018-09-30T06:39:08.345Z,7.26
2018-09-30T06:40:08.283Z,7.28
2018-09-30T06:41:08.235Z,7.33
2018-09-30T06:42:08.151Z,7.39
2018-09-30T06:43:08.086Z,7.42
2018-09-30T06:44:08.020Z,7.47
2018-09-30T06:45:08.117Z,7.55
2018-09-30T06:46:07.886Z,7.61
2018-09-30T06:47:07.826Z,7.60
2018-09-30T06:48:07.760Z,7.64
2018-09-30T06:49:07.695Z,7.62
2018-09-30T06:50:07.628Z,7.64
2018-09-30T06:51:07.567Z,7.69
2018-09-30T06:52:07.504Z,7.68
2018-09-30T06:53:07.433Z,7.69
2018-09-30T06:54:07.370Z,7.76
2018-09-30T06:55:07.306Z,7.76
2018-09-30T06:56:07.240Z,7.92
2018-09-30T06:57:07.175Z,7.88
2018-09-30T06:58:07.112Z,7.91
2018-09-30T06:59:07.045Z,7.98
2018-09-30T07:00:06.988Z,8.01
2018-09-30T07:01:06.918Z,8.01
2018-09-30T07:02:06.852Z,8.05
2018-09-30T07:03:06.787Z,8.05
2018-09-30T07:04:06.726Z,8.09
2018-09-30T07:05:06.661Z,8.10
2018-09-30T07:06:06.593Z,8.24
2018-09-30T07:07:06.529Z,8.26
2018-09-30T07:08:06.466Z,8.34
2018-09-30T07:09:06.399Z,8.32
2018-09-30T07:10:06.334Z,8.37
2018-09-30T07:11:06.274Z,8.39
2018-09-30T07:12:06.206Z,8.39
2018-09-30T07:13:06.140Z,8.35
2018-09-30T07:14:06.081Z,8.37
2018-09-30T07:15:06.012Z,8.32
2018-09-30T07:16:05.949Z,8.37
2018-09-30T07:17:05.882Z,8.38
2018-09-30T07:18:05.819Z,8.34
2018-09-30T07:19:05.755Z,8.42
2018-09-30T07:20:05.691Z,8.29
2018-09-30T07:21:05.628Z,8.44
2018-09-30T07:22:05.559Z,8.42
2018-09-30T07:23:05.496Z,8.41
2018-09-30T07:24:05.432Z,8.37
2018-09-30T07:25:05.369Z,8.46
2018-09-30T07:26:05.303Z,8.57
2018-09-30T07:27:05.238Z,8.60
2018-09-30T07:28:05.177Z,8.57
2018-09-30T07:29:05.110Z,8.62
2018-09-30T07:30:05.045Z,8.65
2018-09-30T07:31:04.979Z,8.67
2018-09-30T07:32:04.917Z,8.70
2018-09-30T07:33:04.851Z,8.74
2018-09-30T07:34:04.789Z,8.70
2018-09-30T07:35:04.724Z,8.72
2018-09-30T07:36:04.660Z,8.77
2018-09-30T07:37:04.595Z,8.92
2018-09-30T07:38:04.531Z,8.92
2018-09-30T07:39:04.467Z,8.95
2018-09-30T07:40:04.407Z,9.04
2018-09-30T07:41:04.337Z,9.06
2018-09-30T07:42:04.274Z,9.11
2018-09-30T07:43:04.210Z,9.12
2018-09-30T07:44:04.146Z,9.14
2018-09-30T07:45:04.082Z,9.22
2018-09-30T07:46:04.018Z,9.16
2018-09-30T07:47:03.953Z,9.32
2018-09-30T07:48:03.886Z,9.37
2018-09-30T07:49:03.825Z,9.32
2018-09-30T07:50:03.761Z,9.30
2018-09-30T07:51:03.701Z,9.32
2018-09-30T07:52:03.634Z,9.30
2018-09-30T07:53:03.568Z,9.30
2018-09-30T07:54:03.504Z,9.30
2018-09-30T07:55:03.442Z,9.47
2018-09-30T07:56:03.379Z,9.50
2018-09-30T07:57:03.313Z,9.47
2018-09-30T07:58:03.249Z,9.52
2018-09-30T07:59:03.187Z,9.55
2018-09-30T08:00:03.121Z,9.59
2018-09-30T08:01:03.057Z,9.60
2018-09-30T08:02:02.994Z,9.54
2018-09-30T08:03:02.932Z,9.59
2018-09-30T08:04:02.864Z,9.75
2018-09-30T08:05:02.803Z,9.67
2018-09-30T08:06:02.750Z,9.78
2018-09-30T08:07:02.673Z,9.87
2018-09-30T08:08:02.609Z,9.96
2018-09-30T08:09:02.549Z,10.05
2018-09-30T08:10:02.481Z,10.02
2018-09-30T08:11:02.421Z,10.01
2018-09-30T08:12:02.355Z,10.12
2018-09-30T08:13:02.290Z,10.16
2018-09-30T08:14:02.228Z,10.21
2018-09-30T08:15:02.165Z,10.24
2018-09-30T08:16:02.104Z,10.31
2018-09-30T08:17:02.103Z,10.42
2018-09-30T08:18:01.977Z,10.42
2018-09-30T08:19:01.912Z,10.42
2018-09-30T08:20:01.848Z,10.45
2018-09-30T08:21:01.781Z,10.49
2018-09-30T08:22:01.716Z,10.60
2018-09-30T08:23:01.654Z,10.72
2018-09-30T08:24:01.668Z,10.80
2018-09-30T08:25:01.523Z,10.91
2018-09-30T08:26:01.464Z,10.91
2018-09-30T08:27:01.401Z,10.97
2018-09-30T08:28:01.337Z,11.00
2018-09-30T08:29:01.272Z,10.98
2018-09-30T08:30:01.207Z,11.05
2018-09-30T08:31:01.145Z,11.01
2018-09-30T08:32:01.083Z,11.08
2018-09-30T08:33:01.018Z,11.04
2018-09-30T08:34:00.954Z,11.03
2018-09-30T08:35:00.891Z,11.12
2018-09-30T08:36:00.826Z,11.27
2018-09-30T08:37:00.765Z,11.34
2018-09-30T08:38:00.700Z,11.41
2018-09-30T08:39:00.638Z,11.28
2018-09-30T08:40:00.646Z,11.34
2018-09-30T08:41:00.511Z,11.36
2018-09-30T08:42:00.448Z,11.49
2018-09-30T08:43:00.385Z,11.56
2018-09-30T08:44:00.322Z,11.54
2018-09-30T08:45:00.257Z,11.69
2018-09-30T08:46:00.194Z,11.61
2018-09-30T08:47:00.131Z,11.69
2018-09-30T08:48:00.068Z,11.77
2018-09-30T08:49:00.003Z,11.71
2018-09-30T08:49:59.942Z,11.79
2018-09-30T08:50:59.877Z,11.82
2018-09-30T08:51:59.815Z,11.88
2018-09-30T08:52:59.752Z,11.95
2018-09-30T08:53:59.767Z,11.95
2018-09-30T08:54:59.625Z,11.88
2018-09-30T08:55:59.617Z,11.85
2018-09-30T08:56:59.499Z,11.89
2018-09-30T08:57:59.438Z,11.93
2018-09-30T08:58:59.375Z,11.93
2018-09-30T08:59:59.315Z,11.95
2018-09-30T09:00:59.248Z,12.05
2018-09-30T09:01:59.187Z,12.15
2018-09-30T09:02:59.128Z,12.15
2018-09-30T09:03:59.060Z,12.17
2018-09-30T09:04:58.996Z,12.22
2018-09-30T09:05:58.933Z,12.35
2018-09-30T09:06:58.869Z,12.44
2018-09-30T09:07:58.807Z,12.50
2018-09-30T09:08:58.742Z,12.53
2018-09-30T09:09:58.800Z,12.59
2018-09-30T09:10:58.621Z,12.66
2018-09-30T09:11:58.557Z,12.68
2018-09-30T09:12:58.493Z,12.63
2018-09-30T09:13:58.431Z,12.59
2018-09-30T09:14:58.367Z,12.68
2018-09-30T09:15:58.311Z,12.58
2018-09-30T09:16:58.244Z,12.66
2018-09-30T09:17:58.181Z,12.76
2018-09-30T09:18:58.116Z,12.76
2018-09-30T09:19:58.055Z,12.80
2018-09-30T09:20:57.989Z,12.66
2018-09-30T09:21:57.930Z,12.66
2018-09-30T09:22:57.867Z,12.73
2018-09-30T09:23:57.804Z,12.79
2018-09-30T09:24:57.740Z,12.73
2018-09-30T09:25:57.678Z,12.73
2018-09-30T09:26:57.614Z,12.83
2018-09-30T09:27:57.567Z,12.87
2018-09-30T09:28:57.490Z,12.98
2018-09-30T09:29:57.427Z,13.08
2018-09-30T09:30:57.366Z,13.20
2018-09-30T09:31:57.304Z,13.14
2018-09-30T09:32:57.272Z,13.26
2018-09-30T09:33:57.177Z,13.26
2018-09-30T09:34:57.142Z,13.42
2018-09-30T09:35:57.057Z,13.42
2018-09-30T09:36:56.989Z,13.49
2018-09-30T09:37:56.928Z,13.43
2018-09-30T09:38:56.866Z,13.38
2018-09-30T09:39:56.802Z,13.40
2018-09-30T09:40:56.741Z,13.54
2018-09-30T09:41:56.677Z,13.54
2018-09-30T09:42:56.614Z,13.64
2018-09-30T09:43:56.553Z,13.61
2018-09-30T09:44:56.490Z,13.67
2018-09-30T09:45:56.428Z,13.68
2018-09-30T09:46:56.404Z,13.72
2018-09-30T09:47:56.303Z,13.76
2018-09-30T09:48:56.242Z,13.71
2018-09-30T09:49:56.178Z,13.83
2018-09-30T09:50:56.128Z,13.90
2018-09-30T09:51:56.055Z,13.82
2018-09-30T09:52:55.991Z,13.88
2018-09-30T09:53:55.929Z,13.86
2018-09-30T09:54:55.868Z,13.91
2018-09-30T09:55:55.807Z,14.04
2018-09-30T09:56:55.743Z,14.03
2018-09-30T09:57:55.680Z,14.08
2018-09-30T09:58:55.657Z,14.19
2018-09-30T09:59:55.560Z,14.16
2018-09-30T10:00:55.493Z,14.27
2018-09-30T10:01:55.432Z,14.34
2018-09-30T10:02:55.371Z,14.38
2018-09-30T10:03:55.310Z,14.48
2018-09-30T10:04:55.246Z,14.53
2018-09-30T10:05:55.184Z,14.59
2018-09-30T10:06:55.122Z,14.63
2018-09-30T10:07:55.060Z,14.51
2018-09-30T10:08:54.999Z,14.67
2018-09-30T10:09:54.936Z,14.59
2018-09-30T10:10:54.876Z,14.59
2018-09-30T10:11:54.813Z,14.52
2018-09-30T10:12:54.751Z,14.53
2018-09-30T10:13:54.694Z,14.52
2018-09-30T10:14:54.627Z,14.53
2018-09-30T10:15:54.566Z,14.56
2018-09-30T10:16:54.499Z,14.69
2018-09-30T10:17:54.441Z,14.79
2018-09-30T10:18:54.385Z,14.90
2018-09-30T10:19:54.319Z,14.99
2018-09-30T10:20:54.256Z,14.93
2018-09-30T10:21:54.195Z,14.85
2018-09-30T10:22:54.134Z,14.87
2018-09-30T10:23:54.075Z,15.03
2018-09-30T10:24:54.013Z,15.03
2018-09-30T10:25:53.975Z,15.12
2018-09-30T10:26:53.912Z,15.25
2018-09-30T10:27:53.829Z,15.29
2018-09-30T10:28:53.795Z,15.29
2018-09-30T10:29:53.701Z,15.33
2018-09-30T10:30:53.644Z,15.36
2018-09-30T10:31:53.580Z,15.32
2018-09-30T10:32:53.516Z,15.23
2018-09-30T10:33:53.457Z,15.17
2018-09-30T10:34:53.389Z,15.15
2018-09-30T10:35:53.332Z,15.30
2018-09-30T10:36:53.273Z,15.32
2018-09-30T10:37:53.208Z,15.44
2018-09-30T10:38:53.217Z,15.51
2018-09-30T10:39:53.089Z,15.48
2018-09-30T10:40:53.021Z,15.60
2018-09-30T10:41:52.963Z,15.77
2018-09-30T10:42:52.902Z,15.78
2018-09-30T10:43:52.843Z,15.84
2018-09-30T10:44:52.781Z,15.84
2018-09-30T10:45:52.716Z,15.88
2018-09-30T10:46:52.658Z,15.81
2018-09-30T10:47:52.595Z,15.81
2018-09-30T10:48:52.535Z,15.72
2018-09-30T10:49:52.473Z,15.73
2018-09-30T10:50:52.413Z,15.77
2018-09-30T10:51:52.351Z,15.90
2018-09-30T10:52:52.288Z,16.00
2018-09-30T10:53:52.232Z,16.03
2018-09-30T10:54:52.166Z,16.03
2018-09-30T10:55:52.104Z,15.98
2018-09-30T10:56:52.057Z,16.05
2018-09-30T10:57:51.982Z,16.03
2018-09-30T10:58:51.921Z,16.06
2018-09-30T10:59:51.860Z,16.05
2018-09-30T11:00:51.798Z,16.09
2018-09-30T11:01:51.735Z,16.13
2018-09-30T11:02:51.678Z,16.05
2018-09-30T11:03:51.618Z,16.02
2018-09-30T11:04:51.553Z,16.06
2018-09-30T11:05:51.493Z,16.17
2018-09-30T11:06:51.432Z,16.21
2018-09-30T11:07:51.372Z,16.39
2018-09-30T11:08:51.309Z,16.37
2018-09-30T11:09:51.370Z,16.39
2018-09-30T11:10:51.190Z,16.42
2018-09-30T11:11:51.127Z,16.39
2018-09-30T11:12:51.064Z,16.39
2018-09-30T11:13:51.004Z,16.39
2018-09-30T11:14:50.943Z,16.39
2018-09-30T11:15:50.882Z,16.37
2018-09-30T11:16:50.820Z,16.42
2018-09-30T11:17:50.759Z,16.42
2018-09-30T11:18:50.702Z,16.47
2018-09-30T11:19:50.640Z,16.62
2018-09-30T11:20:50.578Z,16.72
2018-09-30T11:21:50.513Z,16.70
2018-09-30T11:22:50.455Z,16.73
2018-09-30T11:23:50.398Z,16.83
2018-09-30T11:24:50.334Z,16.82
2018-09-30T11:25:50.276Z,16.76
2018-09-30T11:26:50.213Z,16.74
2018-09-30T11:27:50.160Z,16.77
2018-09-30T11:28:50.088Z,16.69
2018-09-30T11:29:50.035Z,16.65
2018-09-30T11:30:49.970Z,16.74
2018-09-30T11:31:49.939Z,16.72
2018-09-30T11:32:49.845Z,16.55
2018-09-30T11:33:49.784Z,16.62
2018-09-30T11:34:49.727Z,16.59
2018-09-30T11:35:49.664Z,16.67
2018-09-30T11:36:49.601Z,16.67
2018-09-30T11:37:49.543Z,16.62
2018-09-30T11:38:49.483Z,16.73
2018-09-30T11:39:49.420Z,16.62
2018-09-30T11:40:49.359Z,16.52
2018-09-30T11:41:49.298Z,16.47
2018-09-30T11:42:49.259Z,16.57
2018-09-30T11:43:49.178Z,16.54
2018-09-30T11:44:49.115Z,16.65
2018-09-30T11:45:49.054Z,16.62
2018-09-30T11:46:48.995Z,16.72
2018-09-30T11:47:48.933Z,16.61
2018-09-30T11:48:48.874Z,16.70
2018-09-30T11:49:48.810Z,16.77
2018-09-30T11:50:48.763Z,16.76
2018-09-30T11:51:48.692Z,16.84
2018-09-30T11:52:48.698Z,16.90
2018-09-30T11:53:48.567Z,16.99
2018-09-30T11:54:48.506Z,17.09
2018-09-30T11:55:48.447Z,17.20
2018-09-30T11:56:48.389Z,17.27
2018-09-30T11:57:48.325Z,17.38
2018-09-30T11:58:48.264Z,17.39
2018-09-30T11:59:48.204Z,17.43
2018-09-30T12:00:48.141Z,17.38
2018-09-30T12:01:48.088Z,17.39
2018-09-30T12:02:48.021Z,17.49
2018-09-30T12:03:47.959Z,17.41
2018-09-30T12:04:47.901Z,17.43
2018-09-30T12:05:47.841Z,17.43
2018-09-30T12:06:47.776Z,17.38
2018-09-30T12:07:47.719Z,17.39
2018-09-30T12:08:47.660Z,17.43
2018-09-30T12:09:47.604Z,17.35
2018-09-30T12:10:47.537Z,17.32
2018-09-30T12:11:47.477Z,17.38
2018-09-30T12:12:47.414Z,17.35
2018-09-30T12:13:47.360Z,17.39
2018-09-30T12:14:47.297Z,17.38
2018-09-30T12:15:47.230Z,17.46
2018-09-30T12:16:47.167Z,17.43
2018-09-30T12:17:47.115Z,17.37
2018-09-30T12:18:47.111Z,17.32
2018-09-30T12:19:46.991Z,17.27
2018-09-30T12:20:46.929Z,17.19
2018-09-30T12:21:46.871Z,17.24
2018-09-30T12:22:46.811Z,17.16
2018-09-30T12:23:46.751Z,17.27
2018-09-30T12:24:46.688Z,17.28
2018-09-30T12:25:46.691Z,17.22
2018-09-30T12:26:46.567Z,17.34
2018-09-30T12:27:46.511Z,17.37
2018-09-30T12:28:46.448Z,17.45
2018-09-30T12:29:46.385Z,17.43
2018-09-30T12:30:46.326Z,17.41
2018-09-30T12:31:46.265Z,17.38
2018-09-30T12:32:46.203Z,17.45
2018-09-30T12:33:46.154Z,17.56
2018-09-30T12:34:46.083Z,17.54
2018-09-30T12:35:46.023Z,17.59
2018-09-30T12:36:45.963Z,17.73
2018-09-30T12:37:45.900Z,17.78
2018-09-30T12:38:45.839Z,17.90
2018-09-30T12:39:45.781Z,17.94
2018-09-30T12:40:45.723Z,18.02
2018-09-30T12:41:45.657Z,18.03
2018-09-30T12:42:45.600Z,18.01
2018-09-30T12:43:45.543Z,18.02
2018-09-30T12:44:45.476Z,18.05
2018-09-30T12:45:45.417Z,18.12
2018-09-30T12:46:45.359Z,18.11
2018-09-30T12:47:45.296Z,18.15
2018-09-30T12:48:45.237Z,18.11
2018-09-30T12:49:45.175Z,18.02
2018-09-30T12:50:45.115Z,18.05
2018-09-30T12:51:45.056Z,17.94
2018-09-30T12:52:44.993Z,18.01
2018-09-30T12:53:44.936Z,18.03
2018-09-30T12:54:44.874Z,18.08
2018-09-30T12:55:44.817Z,18.03
2018-09-30T12:56:44.755Z,18.08
2018-09-30T12:57:44.692Z,18.03
2018-09-30T12:58:44.632Z,18.05
2018-09-30T12:59:44.572Z,18.15
2018-09-30T13:00:44.512Z,18.23
2018-09-30T13:01:44.450Z,18.21
2018-09-30T13:02:44.390Z,18.21
2018-09-30T13:03:44.332Z,18.11
2018-09-30T13:04:44.270Z,18.09
2018-09-30T13:05:44.283Z,18.11
2018-09-30T13:06:44.153Z,18.15
2018-09-30T13:07:44.090Z,18.24
2018-09-30T13:08:44.028Z,18.18